Time;durP1;ratioP1;P1;durP2;ratioP2;P2;SDS_P1;SDS_P2;PMS_P1;PMS_P2;Temp;Humidity;BMP_temperature;BMP_pressure;BME280_temperature;BME280_humidity;BME280_pressure;Samples;Min_cycle;Max_cycle;Signal;HPM_P1;HPM_P2
2023/10/11 00:06:04;;;;;;;10.80;8.10;;;;;;;4.97;100.00;98118.35;110122;1244;60513;-56
2023/10/11 00:08:40;;;;;;;11.00;8.50;;;;;;;4.89;100.00;98114.84;110122;1243;60491;-56
2023/10/11 00:11:12;;;;;;;11.20;8.80;;;;;;;4.83;100.00;98117.50;110132;1243;72254;-56
2023/10/11 00:13:48;;;;;;;10.90;7.80;;;;;;;4.76;100.00;98118.64;110105;1243;68596;-58
2023/10/11 00:16:21;;;;;;;10.50;7.90;;;;;;;4.69;100.00;98114.58;110129;1244;69121;-58
2023/10/11 00:18:55;;;;;;;12.00;7.40;;;;;;;4.63;100.00;98114.45;110122;1244;60477;-55
2023/10/11 00:21:53;;;;;;;8.70;6.80;;;;;;;4.57;100.00;98118.48;110105;1241;60595;-58
2023/10/11 00:24:23;;;;;;;11.10;7.20;;;;;;;4.51;100.00;98122.32;110139;1241;72198;-59
2023/10/11 00:26:59;;;;;;;10.70;7.00;;;;;;;4.46;100.00;98119.76;110157;1244;69193;-57
2023/10/11 00:29:39;;;;;;;;;;;;;;;4.39;100.00;98112.93;110156;1243;69319;-57
2023/10/11 00:32:12;;;;;;;12.90;8.70;;;;;;;4.30;100.00;98115.67;110094;1244;60559;-58
2023/10/11 00:34:45;;;;;;;12.50;8.20;;;;;;;4.23;100.00;98112.30;110110;1244;60498;-58
2023/10/11 00:37:23;;;;;;;11.90;7.00;;;;;;;4.19;100.00;98109.50;110146;1243;72056;-59
2023/10/11 00:39:57;;;;;;;8.40;6.20;;;;;;;4.17;100.00;98110.80;110200;1245;68614;-57
2023/10/11 00:42:32;;;;;;;10.60;6.30;;;;;;;4.14;100.00;98108.15;110106;1245;69216;-57
2023/10/11 00:45:07;;;;;;;10.60;6.90;;;;;;;4.12;100.00;98109.61;110151;1244;60554;-59
2023/10/11 00:47:41;;;;;;;13.60;9.40;;;;;;;4.09;100.00;98109.52;110145;1241;61008;-58
2023/10/11 00:50:15;;;;;;;12.50;8.60;;;;;;;4.06;100.00;98100.33;110159;1244;70557;-59
2023/10/11 00:52:55;;;;;;;12.30;8.90;;;;;;;4.02;100.00;98098.23;110159;1245;69263;-58
2023/10/11 00:55:29;;;;;;;13.60;9.10;;;;;;;3.97;100.00;98097.73;110119;1244;69078;-58
2023/10/11 00:58:10;;;;;;;10.90;8.40;;;;;;;3.90;100.00;98098.16;110160;1244;60543;-59
2023/10/11 01:00:42;;;;;;;11.70;8.10;;;;;;;3.84;100.00;98099.88;110158;1244;60437;-58
2023/10/11 01:03:14;;;;;;;10.20;7.80;;;;;;;3.78;100.00;98099.57;110053;1244;72060;-59
2023/10/11 01:05:48;;;;;;;12.10;7.70;;;;;;;3.73;100.00;98094.59;110106;1245;68632;-59
2023/10/11 01:08:21;;;;;;;9.60;7.40;;;;;;;3.69;100.00;98095.95;110146;1243;68465;-58
2023/10/11 01:10:54;;;;;;;11.30;7.80;;;;;;;3.64;100.00;98094.90;110129;1241;60543;-56
2023/10/11 01:13:38;;;;;;;10.50;6.90;;;;;;;3.61;100.00;98098.30;110156;1243;60499;-57
2023/10/11 01:16:15;;;;;;;10.60;6.60;;;;;;;3.57;100.00;98096.02;110157;1244;72120;-58
2023/10/11 01:18:47;;;;;;;11.40;6.90;;;;;;;3.54;100.00;98102.98;110124;1243;69653;-59
2023/10/11 01:21:21;;;;;;;7.20;5.60;;;;;;;3.52;100.00;98109.10;110108;1242;68377;-58
2023/10/11 01:23:51;;;;;;;10.00;6.30;;;;;;;3.49;100.00;98109.20;110170;1241;60612;-58
2023/10/11 01:26:23;;;;;;;9.00;6.30;;;;;;;3.45;100.00;98106.55;110230;1244;60494;-59
2023/10/11 01:28:56;;;;;;;9.30;6.50;;;;;;;3.41;100.00;98106.70;110154;1243;72606;-59
2023/10/11 01:31:33;;;;;;;9.00;6.10;;;;;;;3.35;100.00;98109.48;110158;1242;68587;-59
2023/10/11 01:34:05;;;;;;;11.30;7.40;;;;;;;3.29;100.00;98113.63;110165;1241;69299;-59
2023/10/11 01:36:39;;;;;;;9.70;7.20;;;;;;;3.23;100.00;98115.39;110161;1244;60583;-60
2023/10/11 01:39:21;;;;;;;9.80;6.90;;;;;;;3.17;100.00;98113.85;110158;1243;60446;-59
2023/10/11 01:41:58;;;;;;;11.50;7.10;;;;;;;3.12;100.00;98116.61;110128;1243;72003;-59
2023/10/11 01:44:31;;;;;;;8.60;6.80;;;;;;;3.08;100.00;98115.86;110139;1244;68510;-59
2023/10/11 01:47:05;;;;;;;10.10;7.50;;;;;;;3.04;100.00;98124.93;110105;1251;69100;-58
2023/10/11 01:49:39;;;;;;;10.20;6.90;;;;;;;3.03;100.00;98131.68;110128;1245;60470;-59
2023/10/11 01:52:13;;;;;;;11.80;8.10;;;;;;;3.05;100.00;98136.95;110153;1241;60555;-58
2023/10/11 01:54:43;;;;;;;12.10;6.90;;;;;;;3.05;100.00;98140.75;110162;1244;72064;-55
2023/10/11 01:57:13;;;;;;;14.40;11.50;;;;;;;3.03;100.00;98142.52;110144;1244;69308;-57
2023/10/11 01:59:46;;;;;;;14.40;10.80;;;;;;;3.02;100.00;98142.38;110075;1244;68590;-58
2023/10/11 02:02:24;;;;;;;16.20;11.70;;;;;;;3.01;100.00;98138.97;110148;1243;60475;-58
2023/10/11 02:04:59;;;;;;;19.80;15.00;;;;;;;2.99;100.00;98137.84;110194;1243;60518;-56
2023/10/11 02:07:32;;;;;;;18.20;12.70;;;;;;;2.96;100.00;98134.66;110177;1243;71832;-58
2023/10/11 02:10:04;;;;;;;13.70;10.40;;;;;;;2.96;100.00;98136.71;110116;1242;69284;-58
2023/10/11 02:12:35;;;;;;;14.50;11.30;;;;;;;2.95;100.00;98134.86;110105;1244;69297;-58
2023/10/11 02:15:07;;;;;;;12.70;9.60;;;;;;;2.93;100.00;98139.92;110090;1241;60571;-58
2023/10/11 02:17:39;;;;;;;10.20;8.10;;;;;;;2.91;100.00;98146.38;110166;1246;60412;-57
2023/10/11 02:20:21;;;;;;;13.90;9.40;;;;;;;2.87;100.00;98155.27;110097;1244;72193;-57
2023/10/11 02:22:55;;;;;;;11.20;8.60;;;;;;;2.81;100.00;98158.01;110109;1245;69648;-57
2023/10/11 02:25:26;;;;;;;12.00;8.10;;;;;;;2.77;100.00;98158.29;110107;1243;69304;-58
2023/10/11 02:27:58;;;;;;;13.00;8.70;;;;;;;2.77;100.00;98155.71;110121;1244;60474;-58
2023/10/11 02:30:38;;;;;;;14.40;10.60;;;;;;;2.77;100.00;98148.84;110158;1243;60488;-58
2023/10/11 02:33:11;;;;;;;18.40;12.90;;;;;;;2.78;100.00;98148.13;110171;1243;72273;-57
2023/10/11 02:35:52;;;;;;;19.40;13.70;;;;;;;2.79;100.00;98155.83;110160;1241;69268;-58
2023/10/11 02:38:25;;;;;;;19.50;14.70;;;;;;;2.80;100.00;98157.86;110087;1243;68533;-56
2023/10/11 02:40:56;;;;;;;20.30;14.30;;;;;;;2.81;100.00;98163.51;110099;1243;60564;-57
2023/10/11 02:43:28;;;;;;;18.50;13.80;;;;;;;2.81;100.00;98169.19;110166;1244;60437;-58
2023/10/11 02:45:59;;;;;;;15.30;12.20;;;;;;;2.80;100.00;98170.60;110159;1243;72212;-58
2023/10/11 02:48:30;;;;;;;17.10;11.70;;;;;;;2.79;100.00;98169.79;110152;1244;67518;-57
2023/10/11 02:51:16;;;;;;;16.50;10.50;;;;;;;2.77;100.00;98163.12;110087;1243;69386;-57
2023/10/11 02:53:52;;;;;;;19.50;12.70;;;;;;;2.76;100.00;98165.71;110132;1244;60506;-58
2023/10/11 02:56:24;;;;;;;24.90;15.60;;;;;;;2.74;100.00;98177.33;110101;1244;60482;-57
2023/10/11 02:58:54;;;;;;;22.10;15.60;;;;;;;2.72;100.00;98182.91;110157;1243;71907;-58
2023/10/11 03:01:31;;;;;;;17.30;12.70;;;;;;;2.71;100.00;98183.77;110101;1244;69873;-57
2023/10/11 03:04:03;;;;;;;17.00;12.80;;;;;;;2.71;100.00;98181.19;110116;1241;68740;-57
2023/10/11 03:06:35;;;;;;;13.70;9.80;;;;;;;2.68;100.00;98176.13;110089;1243;60547;-58
2023/10/11 03:09:11;;;;;;;14.10;11.20;;;;;;;2.62;100.00;98173.19;110142;1243;60451;-56
2023/10/11 03:11:45;;;;;;;13.90;9.70;;;;;;;2.59;100.00;98172.59;110116;1243;72309;-57
2023/10/11 03:14:16;;;;;;;13.60;9.70;;;;;;;2.57;100.00;98179.52;110151;1243;69702;-57
2023/10/11 03:17:05;;;;;;;12.40;9.50;;;;;;;2.54;100.00;98182.20;110157;1245;68290;-56
2023/10/11 03:19:42;;;;;;;12.80;8.70;;;;;;;2.53;100.00;98181.19;110137;1244;60547;-59
2023/10/11 03:22:22;;;;;;;13.60;10.50;;;;;;;2.54;100.00;98183.05;110154;1244;60486;-58
2023/10/11 03:24:53;;;;;;;12.20;8.10;;;;;;;2.57;100.00;98182.47;110115;1242;71444;-57
2023/10/11 03:27:27;;;;;;;15.10;9.70;;;;;;;2.59;100.00;98180.35;110146;1244;69377;-57
2023/10/11 03:29:59;;;;;;;16.20;9.60;;;;;;;2.59;100.00;98182.58;110105;1241;69309;-59
2023/10/11 03:32:29;;;;;;;11.10;7.70;;;;;;;2.60;100.00;98179.81;110119;1241;60514;-58
2023/10/11 03:34:59;;;;;;;11.20;7.90;;;;;;;2.62;100.00;98177.48;110116;1243;60551;-57
2023/10/11 03:37:30;;;;;;;10.90;7.00;;;;;;;2.64;100.00;98177.13;110160;1244;72322;-58
2023/10/11 03:40:11;;;;;;;9.90;6.90;;;;;;;2.63;100.00;98172.83;110145;1242;69365;-58
2023/10/11 03:42:59;;;;;;;11.90;9.30;;;;;;;2.61;100.00;98178.07;110127;1243;68505;-57
2023/10/11 03:45:34;;;;;;;10.60;7.70;;;;;;;2.55;100.00;98172.70;110141;1245;60497;-56
2023/10/11 03:48:09;;;;;;;11.40;8.00;;;;;;;2.51;100.00;98174.02;110166;1244;60504;-57
2023/10/11 03:50:47;;;;;;;15.10;10.40;;;;;;;2.48;100.00;98168.09;110196;1243;71474;-57
2023/10/11 03:53:17;;;;;;;11.80;8.70;;;;;;;2.44;100.00;98160.98;110126;1245;68703;-55
2023/10/11 03:55:47;;;;;;;;;;;;;;;2.39;100.00;98161.11;110162;1244;69299;-55
2023/10/11 04:01:12;;;;;;;9.90;7.60;;;;;;;2.28;100.00;98168.64;110147;1241;60574;-59
2023/10/11 04:03:43;;;;;;;14.80;10.00;;;;;;;2.23;100.00;98173.94;110207;1245;71645;-60
2023/10/11 04:06:33;;;;;;;13.40;8.30;;;;;;;2.22;100.00;98176.05;110178;1244;69333;-59
2023/10/11 04:09:03;;;;;;;16.10;11.10;;;;;;;2.25;100.00;98174.06;110204;1244;68531;-56
2023/10/11 04:11:37;;;;;;;12.90;9.10;;;;;;;2.28;100.00;98174.14;110172;1243;60977;-59
2023/10/11 04:14:17;;;;;;;13.40;9.50;;;;;;;2.37;100.00;98174.60;110192;1244;60437;-56
2023/10/11 04:16:49;;;;;;;15.60;9.40;;;;;;;2.45;100.00;98177.98;110222;1243;71481;-56
2023/10/11 04:19:21;;;;;;;13.30;9.30;;;;;;;2.52;100.00;98177.60;110265;1244;69320;-57
2023/10/11 04:24:20;;;;;;;16.30;11.80;;;;;;;2.55;100.00;98174.77;110203;1244;60483;-58
2023/10/11 04:29:51;;;;;;;15.30;10.40;;;;;;;2.41;100.00;98173.77;109819;1241;72502;-59
2023/10/11 04:35:57;;;;;;;18.30;13.50;;;;;;;2.24;100.00;98197.13;110204;1241;69156;-59
2023/10/11 04:38:03;;;;;;;17.90;12.50;;;;;;;2.13;100.00;98193.83;110106;1243;60513;-59
2023/10/11 04:43:04;;;;;;;19.60;13.50;;;;;;;2.01;100.00;98200.32;110147;1244;72631;-57
2023/10/11 04:45:44;;;;;;;12.20;9.40;;;;;;;1.98;100.00;98199.88;110154;1244;69316;-57
2023/10/11 04:48:33;;;;;;;14.00;9.60;;;;;;;1.95;100.00;98201.70;110156;1251;69684;-58
2023/10/11 04:51:21;;;;;;;15.00;11.10;;;;;;;2.00;100.00;98199.65;110136;1244;60532;-56
2023/10/11 05:02:08;;;;;;;13.50;10.30;;;;;;;2.15;100.00;98209.93;110087;1246;68780;-54
2023/10/11 05:04:44;;;;;;;12.00;8.00;;;;;;;2.19;100.00;98211.20;110110;1246;60508;-58
2023/10/11 05:07:19;;;;;;;10.00;6.50;;;;;;;2.22;100.00;98213.53;110118;1244;60505;-57
2023/10/11 05:12:41;;;;;;;9.40;7.40;;;;;;;2.37;100.00;98218.30;110138;1244;69601;-58
2023/10/11 05:15:13;;;;;;;9.60;6.60;;;;;;;2.44;100.00;98219.98;110114;1244;69274;-55
2023/10/11 05:17:58;;;;;;;11.10;7.10;;;;;;;2.54;100.00;98223.84;110159;1245;60919;-58
2023/10/11 05:23:13;;;;;;;9.40;6.20;;;;;;;2.87;100.00;98226.87;110126;1244;72256;-57
2023/10/11 05:25:58;;;;;;;9.70;6.70;;;;;;;3.17;100.00;98227.02;110199;1244;69300;-58
2023/10/11 05:28:30;;;;;;;8.00;6.20;;;;;;;3.53;100.00;98225.03;110123;1247;69473;-59
2023/10/11 05:33:59;;;;;;;9.70;7.50;;;;;;;4.38;100.00;98230.66;110142;1242;60542;-58
2023/10/11 05:53:24;;;;;;;19.80;14.40;;;;;;;6.36;100.00;98260.92;110111;1245;69688;-57
2023/10/11 05:55:56;;;;;;;18.10;13.80;;;;;;;6.42;99.95;98258.60;110111;1244;69130;-58
2023/10/11 05:58:25;;;;;;;18.00;14.90;;;;;;;6.48;100.00;98257.33;110098;1242;60486;-56
2023/10/11 06:00:55;;;;;;;18.90;14.70;;;;;;;6.53;100.00;98253.27;110168;1244;60498;-59
2023/10/11 06:03:28;;;;;;;20.60;14.90;;;;;;;6.66;100.00;98254.45;110167;1244;71421;-57
2023/10/11 06:06:10;;;;;;;17.60;13.50;;;;;;;6.78;99.72;98259.83;110190;1242;69727;-59
2023/10/11 06:08:44;;;;;;;16.80;12.90;;;;;;;6.90;100.00;98267.62;110127;1245;69295;-59
2023/10/11 06:11:15;;;;;;;20.80;15.70;;;;;;;6.87;100.00;98270.87;110141;1244;60575;-59
2023/10/11 06:13:47;;;;;;;17.00;14.00;;;;;;;6.95;100.00;98271.20;110154;1244;60469;-58
2023/10/11 06:16:22;;;;;;;15.40;13.20;;;;;;;7.00;100.00;98270.64;110180;1245;72704;-59
2023/10/11 06:19:15;;;;;;;16.10;14.00;;;;;;;7.01;100.00;98271.80;110135;1243;68510;-58
2023/10/11 06:22:00;;;;;;;14.10;11.70;;;;;;;7.18;100.00;98271.04;110104;1243;69116;-57
2023/10/11 06:24:39;;;;;;;15.50;12.60;;;;;;;7.36;99.77;98269.84;110140;1243;60560;-58
2023/10/11 06:30:17;;;;;;;15.60;12.40;;;;;;;7.78;98.80;98264.94;109650;1251;72923;-60
2023/10/11 06:32:49;;;;;;;16.90;11.20;;;;;;;8.01;98.27;98267.46;110100;1246;69275;-59
2023/10/11 06:35:24;;;;;;;14.10;11.10;;;;;;;8.19;96.12;98270.40;110112;1243;69131;-59
2023/10/11 06:37:55;;;;;;;12.10;10.50;;;;;;;8.44;96.87;98272.28;110129;1244;60472;-57
2023/10/11 06:40:47;;;;;;;12.40;9.50;;;;;;;8.61;96.80;98277.16;110133;1245;60524;-58
2023/10/11 06:43:17;;;;;;;12.10;9.00;;;;;;;8.56;94.15;98278.65;110110;1242;72184;-59
2023/10/11 06:45:49;;;;;;;;;;;;;;;8.70;94.69;98284.19;110133;1246;69255;-59
2023/10/11 06:48:22;;;;;;;12.30;8.40;;;;;;;8.82;94.80;98288.59;110132;1245;69391;-59
2023/10/11 06:50:52;;;;;;;10.60;8.30;;;;;;;8.92;93.81;98288.60;110133;1242;60523;-59
2023/10/11 06:53:22;;;;;;;10.70;8.00;;;;;;;9.03;93.88;98287.69;110133;1245;60494;-59
2023/10/11 06:55:53;;;;;;;10.80;6.60;;;;;;;9.09;93.26;98289.10;110145;1245;72730;-56
2023/10/11 06:58:22;;;;;;;8.60;5.70;;;;;;;9.33;92.34;98295.29;110148;1244;69223;-59
2023/10/11 07:00:53;;;;;;;7.50;6.10;;;;;;;9.49;89.15;98300.70;110114;1246;69525;-57
2023/10/11 07:06:10;;;;;;;8.50;5.40;;;;;;;9.96;88.27;98303.66;110159;1244;60444;-59
2023/10/11 07:08:49;;;;;;;8.20;5.40;;;;;;;10.02;84.94;98300.72;110138;1245;71680;-59
2023/10/11 07:14:16;;;;;;;7.30;5.00;;;;;;;10.45;84.05;98303.91;109992;1241;69250;-60
2023/10/11 07:16:47;;;;;;;5.80;4.50;;;;;;;10.61;83.66;98309.58;110117;1245;60534;-58
2023/10/11 07:19:16;;;;;;;6.70;5.00;;;;;;;10.78;82.62;98308.05;110145;1244;60489;-59
2023/10/11 07:27:09;;;;;;;5.50;4.30;;;;;;;11.22;81.43;98305.37;110137;1246;68839;-58
2023/10/11 07:29:45;;;;;;;5.20;3.80;;;;;;;11.44;83.46;98305.92;110135;1246;60618;-59
2023/10/11 07:32:19;;;;;;;6.40;3.70;;;;;;;11.56;79.08;98297.37;110112;1246;60484;-58
2023/10/11 07:34:54;;;;;;;5.20;3.60;;;;;;;11.59;77.36;98298.01;110139;1244;71451;-58
2023/10/11 07:37:26;;;;;;;4.70;3.40;;;;;;;11.75;78.90;98293.70;110144;1245;68326;-58
2023/10/11 07:40:00;;;;;;;6.10;4.00;;;;;;;11.99;80.32;98296.73;110168;1245;68526;-60
2023/10/11 07:42:37;;;;;;;8.10;4.00;;;;;;;11.99;75.17;98298.10;110121;1241;60470;-60
2023/10/11 07:45:12;;;;;;;5.00;3.90;;;;;;;12.16;75.28;98289.70;110159;1245;60483;-59
2023/10/11 07:47:45;;;;;;;5.90;3.80;;;;;;;12.42;78.90;98290.23;110125;1245;72806;-58
2023/10/11 07:50:22;;;;;;;5.10;3.50;;;;;;;12.52;75.06;98289.09;110134;1242;69444;-61
2023/10/11 07:52:52;;;;;;;5.40;3.60;;;;;;;12.63;74.13;98289.33;110109;1243;68565;-59
2023/10/11 07:55:26;;;;;;;5.50;3.50;;;;;;;12.59;73.36;98289.13;110177;1241;60549;-58
2023/10/11 07:58:00;;;;;;;4.80;3.70;;;;;;;12.69;73.10;98288.95;110138;1241;60475;-60
2023/10/11 08:00:31;;;;;;;6.50;3.80;;;;;;;12.70;71.72;98292.75;110174;1241;72376;-59
2023/10/11 08:03:04;;;;;;;3.90;3.30;;;;;;;12.96;71.77;98290.59;110127;1244;68506;-58
2023/10/11 08:05:45;;;;;;;5.30;3.70;;;;;;;13.13;70.32;98289.97;110124;1245;69212;-59
2023/10/11 08:08:15;;;;;;;4.80;3.50;;;;;;;13.20;70.42;98293.72;110086;1251;60936;-59
2023/10/11 08:10:52;;;;;;;4.70;3.30;;;;;;;13.48;70.25;98294.41;110138;1243;60489;-59
2023/10/11 08:13:25;;;;;;;4.70;3.30;;;;;;;13.58;70.94;98292.77;110156;1242;71273;-58
2023/10/11 08:15:58;;;;;;;4.80;3.20;;;;;;;13.89;69.29;98295.33;110135;1243;69216;-59
2023/10/11 08:18:29;;;;;;;4.20;3.40;;;;;;;13.98;68.18;98292.58;110137;1246;69880;-58
2023/10/11 08:20:58;;;;;;;;;;;;;;;14.49;69.79;98292.13;110151;1241;60556;-59
2023/10/11 08:23:29;;;;;;;3.50;2.90;;;;;;;14.86;67.19;98293.08;110133;1243;60559;-59
2023/10/11 08:26:05;;;;;;;4.20;3.20;;;;;;;15.09;65.19;98293.52;110134;1246;71623;-60
2023/10/11 08:28:35;;;;;;;4.70;2.80;;;;;;;15.16;63.02;98294.95;110143;1241;69952;-61
2023/10/11 08:31:10;;;;;;;4.30;3.10;;;;;;;15.47;63.80;98300.10;110150;1246;68589;-61
2023/10/11 08:33:39;;;;;;;4.70;3.10;;;;;;;15.70;63.29;98297.88;110111;1243;60494;-60
2023/10/11 08:36:10;;;;;;;4.60;2.90;;;;;;;15.84;60.92;98297.33;110163;1246;60511;-59
2023/10/11 08:38:44;;;;;;;5.40;3.80;;;;;;;15.90;59.62;98294.75;110137;1244;72077;-59
2023/10/11 08:41:15;;;;;;;;;;;;;;;16.06;62.02;98298.73;110141;1241;69252;-60
2023/10/11 08:43:48;;;;;;;5.70;3.70;;;;;;;15.79;61.23;98299.97;110131;1241;69122;-61
2023/10/11 08:46:19;;;;;;;6.80;4.40;;;;;;;15.41;61.66;98309.17;110139;1246;60448;-58
2023/10/11 08:48:50;;;;;;;8.10;4.60;;;;;;;15.51;61.52;98310.80;110125;1250;60505;-60
2023/10/11 08:51:22;;;;;;;5.30;3.80;;;;;;;15.51;63.40;98305.73;110141;1245;72795;-59
2023/10/11 08:54:00;;;;;;;7.50;5.30;;;;;;;15.68;61.99;98306.02;110133;1241;69217;-58
2023/10/11 08:56:33;;;;;;;7.00;5.20;;;;;;;15.29;61.99;98307.45;110144;1245;69917;-59
2023/10/11 08:59:04;;;;;;;6.20;4.00;;;;;;;15.13;62.62;98308.13;110142;1241;60519;-59
2023/10/11 09:01:36;;;;;;;5.30;4.40;;;;;;;15.01;62.97;98312.58;110108;1242;60488;-59
2023/10/11 09:04:11;;;;;;;4.90;3.50;;;;;;;15.19;63.30;98313.15;110137;1246;72188;-60
2023/10/11 09:06:45;;;;;;;5.20;3.50;;;;;;;15.33;62.52;98312.41;110108;1244;69805;-60
2023/10/11 09:09:39;;;;;;;9.50;6.20;;;;;;;15.64;61.91;98314.55;109714;1246;602674;-60
2023/10/11 09:12:24;;;;;;;8.70;5.60;;;;;;;15.48;61.33;98312.98;110116;1241;60538;-60
2023/10/11 09:14:58;;;;;;;7.60;5.00;;;;;;;15.22;62.73;98312.41;110169;1246;60479;-60
2023/10/11 09:17:29;;;;;;;8.90;6.10;;;;;;;15.08;63.43;98310.17;110162;1245;72209;-59
2023/10/11 09:20:03;;;;;;;8.20;5.40;;;;;;;15.14;63.13;98311.64;110170;1241;69923;-59
2023/10/11 09:22:47;;;;;;;8.10;5.90;;;;;;;15.33;63.48;98307.12;110063;1245;69310;-60
2023/10/11 09:25:33;;;;;;;6.90;4.90;;;;;;;15.46;62.46;98307.70;110069;1244;60559;-59
2023/10/11 09:28:04;;;;;;;7.60;5.60;;;;;;;15.54;62.58;98301.64;110128;1245;60465;-60
2023/10/11 09:30:44;;;;;;;8.40;6.20;;;;;;;15.74;62.21;98303.05;110021;1245;72816;-61
2023/10/11 09:33:18;;;;;;;8.00;5.90;;;;;;;15.72;61.36;98302.64;110055;1241;69167;-59
2023/10/11 09:35:50;;;;;;;6.50;5.10;;;;;;;15.69;61.71;98303.41;110080;1244;69797;-59
2023/10/11 09:38:20;;;;;;;5.60;4.70;;;;;;;15.90;61.24;98301.98;110025;1245;60634;-59
2023/10/11 09:40:53;;;;;;;7.30;5.40;;;;;;;16.15;61.09;98295.00;110041;1245;60486;-59
2023/10/11 09:43:24;;;;;;;7.70;4.90;;;;;;;16.45;59.39;98296.08;110127;1241;71915;-59
2023/10/11 09:45:54;;;;;;;7.80;4.90;;;;;;;16.41;59.78;98296.75;110166;1242;69317;-59
2023/10/11 09:48:23;;;;;;;7.00;5.40;;;;;;;16.33;59.04;98294.98;110103;1246;68536;-59
2023/10/11 09:50:57;;;;;;;6.80;4.80;;;;;;;16.76;59.73;98292.44;110115;1244;60504;-60
2023/10/11 09:53:27;;;;;;;6.00;4.50;;;;;;;17.19;58.86;98293.55;110131;1245;60566;-60
2023/10/11 09:56:15;;;;;;;6.10;4.20;;;;;;;17.63;57.99;98287.60;110134;1243;72429;-61
2023/10/11 09:59:09;;;;;;;6.90;4.70;;;;;;;18.11;55.58;98285.71;110134;1241;69893;-60
2023/10/11 10:02:02;;;;;;;6.80;5.00;;;;;;;18.22;54.70;98275.48;110148;1244;68345;-59
2023/10/11 10:04:51;;;;;;;6.90;5.50;;;;;;;18.63;53.66;98282.31;110085;1245;60496;-59
2023/10/11 10:10:15;;;;;;;6.10;5.00;;;;;;;19.82;48.28;98271.47;110111;1245;72305;-60
2023/10/11 10:13:09;;;;;;;6.60;4.30;;;;;;;20.95;49.36;98268.96;110132;1245;69154;-60
2023/10/11 10:15:52;;;;;;;6.00;4.60;;;;;;;21.37;45.36;98263.85;110167;1245;69554;-59
2023/10/11 10:18:27;;;;;;;5.50;4.30;;;;;;;21.76;43.72;98266.04;110143;1245;60556;-59
2023/10/11 10:21:05;;;;;;;6.00;4.40;;;;;;;22.05;42.91;98266.10;110106;1246;60472;-59
2023/10/11 10:23:42;;;;;;;6.70;3.80;;;;;;;23.09;42.18;98272.09;110165;1244;72097;-59
2023/10/11 10:26:12;;;;;;;6.00;5.00;;;;;;;23.09;40.92;98266.02;110124;1251;69228;-59
2023/10/11 10:28:45;;;;;;;5.90;4.50;;;;;;;23.86;39.21;98263.44;110105;1244;69164;-59
2023/10/11 10:31:21;;;;;;;4.80;4.10;;;;;;;23.84;39.63;98260.48;110089;1244;60548;-59
2023/10/11 10:34:13;;;;;;;6.80;4.50;;;;;;;24.43;39.91;98256.70;110149;1242;60545;-59
2023/10/11 10:36:44;;;;;;;7.60;4.60;;;;;;;25.24;39.23;98253.02;110125;1245;73059;-60
2023/10/11 10:39:33;;;;;;;5.80;4.60;;;;;;;25.74;37.93;98250.77;110114;1245;69317;-59
2023/10/11 10:42:15;;;;;;;7.00;5.00;;;;;;;25.48;35.68;98246.33;110013;1242;68708;-61
2023/10/11 10:44:50;;;;;;;5.90;5.20;;;;;;;24.12;37.63;98240.54;110164;1241;60890;-61
2023/10/11 10:47:26;;;;;;;6.10;4.80;;;;;;;24.37;36.77;98244.64;110100;1245;60484;-60
2023/10/11 10:49:56;;;;;;;6.30;3.90;;;;;;;23.69;38.25;98242.80;110110;1243;72180;-60
2023/10/11 10:52:29;;;;;;;7.20;4.90;;;;;;;24.65;37.31;98237.04;110065;1245;69710;-60
2023/10/11 10:55:03;;;;;;;4.60;4.10;;;;;;;24.61;36.97;98230.75;110059;1241;68700;-60
2023/10/11 10:57:36;;;;;;;6.50;5.10;;;;;;;24.63;36.94;98230.16;110100;1245;60590;-59
2023/10/11 11:00:20;;;;;;;4.90;3.60;;;;;;;25.05;35.95;98230.73;110116;1244;60495;-60
2023/10/11 11:02:51;;;;;;;5.20;4.20;;;;;;;25.36;35.03;98228.59;110095;1244;72795;-60
2023/10/11 11:05:29;;;;;;;5.50;3.50;;;;;;;25.27;35.34;98230.31;110101;1241;69193;-60
2023/10/11 11:08:15;;;;;;;5.60;4.40;;;;;;;24.98;36.05;98224.06;110128;1241;69897;-59
2023/10/11 11:10:54;;;;;;;4.80;3.30;;;;;;;25.18;34.95;98226.27;110123;1244;60477;-61
2023/10/11 11:13:29;;;;;;;5.70;3.30;;;;;;;25.17;35.75;98224.56;110132;1244;60504;-60
2023/10/11 11:15:59;;;;;;;4.30;3.40;;;;;;;25.80;34.98;98215.94;110146;1241;71436;-60
2023/10/11 11:18:32;;;;;;;4.50;2.80;;;;;;;25.50;34.66;98209.95;110143;1241;70327;-60
2023/10/11 11:21:25;;;;;;;4.30;2.90;;;;;;;25.46;34.64;98208.62;110051;1241;69296;-60
2023/10/11 11:23:55;;;;;;;4.50;3.60;;;;;;;25.63;34.45;98205.69;110121;1245;60504;-60
2023/10/11 11:26:31;;;;;;;3.80;2.90;;;;;;;26.66;33.85;98202.86;110196;1242;60471;-61
2023/10/11 11:29:16;;;;;;;7.10;3.80;;;;;;;26.67;33.54;98206.12;110138;1242;72278;-61
2023/10/11 11:31:53;;;;;;;9.10;6.20;;;;;;;27.78;32.20;98200.05;110215;1241;68615;-61
2023/10/11 11:34:37;;;;;;;5.00;3.20;;;;;;;26.68;32.72;98196.89;110122;1242;69885;-60
2023/10/11 11:37:08;;;;;;;3.60;2.80;;;;;;;27.30;32.63;98200.33;110128;1245;60550;-59
2023/10/11 11:39:52;;;;;;;4.60;2.60;;;;;;;26.72;32.35;98197.43;110147;1244;60516;-60
2023/10/11 11:42:24;;;;;;;3.20;2.30;;;;;;;27.11;32.45;98199.97;110143;1244;72121;-60
2023/10/11 11:44:55;;;;;;;3.20;2.50;;;;;;;28.45;32.24;98191.96;110169;1241;68941;-60
2023/10/11 11:47:25;;;;;;;3.00;2.40;;;;;;;29.06;31.34;98189.47;110131;1241;68390;-60
2023/10/11 11:49:59;;;;;;;3.20;2.10;;;;;;;28.78;29.89;98185.74;110129;1244;60490;-60
2023/10/11 11:52:29;;;;;;;3.50;2.00;;;;;;;28.64;29.91;98182.06;110135;1243;60436;-61
2023/10/11 11:54:58;;;;;;;2.80;1.90;;;;;;;28.92;29.81;98177.73;110100;1241;72780;-61
2023/10/11 11:57:29;;;;;;;2.60;1.80;;;;;;;29.43;29.23;98179.87;110171;1241;69713;-60
2023/10/11 12:00:19;;;;;;;2.80;1.80;;;;;;;29.59;29.61;98177.44;110131;1244;69296;-61
2023/10/11 12:02:53;;;;;;;2.60;1.80;;;;;;;30.04;29.22;98173.56;110179;1244;60556;-61
2023/10/11 12:05:23;;;;;;;2.40;1.90;;;;;;;29.95;28.99;98172.83;110159;1243;60513;-61
2023/10/11 12:07:57;;;;;;;3.40;2.50;;;;;;;29.96;28.68;98168.26;110162;1241;72775;-61
2023/10/11 12:10:27;;;;;;;2.90;2.20;;;;;;;29.84;28.43;98164.44;110130;1244;69079;-60
2023/10/11 12:13:05;;;;;;;4.90;2.00;;;;;;;29.92;28.04;98165.48;110109;1244;69685;-60
2023/10/11 12:15:35;;;;;;;3.40;2.10;;;;;;;29.39;28.95;98170.65;110132;1244;60613;-61
2023/10/11 12:18:09;;;;;;;3.10;1.60;;;;;;;30.28;29.05;98166.20;110152;1244;60476;-61
2023/10/11 12:20:39;;;;;;;2.90;1.80;;;;;;;30.28;27.30;98164.51;110140;1243;72632;-60
2023/10/11 12:23:10;;;;;;;2.10;1.50;;;;;;;30.68;28.07;98168.82;110142;1245;69255;-59
2023/10/11 12:25:40;;;;;;;2.30;1.50;;;;;;;31.13;27.93;98167.59;110113;1241;69185;-60
2023/10/11 12:28:11;;;;;;;2.30;1.40;;;;;;;30.91;26.93;98165.57;110109;1244;60532;-60
2023/10/11 12:30:44;;;;;;;3.20;1.60;;;;;;;30.47;27.27;98164.11;110105;1246;60499;-59
2023/10/11 12:33:14;;;;;;;2.90;1.70;;;;;;;30.09;26.93;98160.57;110184;1244;73113;-60
2023/10/11 12:35:44;;;;;;;3.10;1.70;;;;;;;30.30;27.42;98162.33;110161;1241;69733;-60
2023/10/11 12:38:14;;;;;;;3.80;2.20;;;;;;;30.46;27.32;98162.61;110175;1243;69253;-60
2023/10/11 12:40:44;;;;;;;1.80;1.40;;;;;;;29.67;27.47;98159.43;110152;1244;60586;-60
2023/10/11 12:43:15;;;;;;;3.40;2.30;;;;;;;28.64;28.90;98155.70;110173;1244;60550;-59
2023/10/11 12:45:45;;;;;;;3.70;2.40;;;;;;;29.06;28.96;98157.44;110232;1243;72132;-60
2023/10/11 12:48:15;;;;;;;3.50;2.20;;;;;;;29.12;28.60;98151.40;110176;1243;68951;-60
2023/10/11 12:50:45;;;;;;;2.80;1.90;;;;;;;28.50;29.21;98147.24;110163;1241;69891;-61
2023/10/11 12:53:15;;;;;;;3.40;2.00;;;;;;;28.09;29.34;98141.91;110178;1244;60546;-61
2023/10/11 12:55:49;;;;;;;3.30;1.80;;;;;;;27.76;29.84;98148.34;110150;1241;60560;-61
2023/10/11 12:58:19;;;;;;;2.10;1.60;;;;;;;27.89;30.18;98143.20;110142;1244;72268;-60
2023/10/11 13:00:51;;;;;;;2.40;1.70;;;;;;;28.12;30.18;98137.83;110180;1241;69120;-61
2023/10/11 13:05:52;;;;;;;3.80;2.00;;;;;;;28.64;29.08;98134.48;110118;1241;60501;-59
2023/10/11 13:08:28;;;;;;;2.40;1.90;;;;;;;29.06;29.15;98128.77;110115;1245;60499;-59